Terminal Aerodrome Forecast
Issued by NWS Jackson, MS

Home | Current Version | Previous Version | Text Only | Print | Product List | Glossary On
Versions: 1 2 3 4 5 6 7 8 9 10 11 12 13 14 15 16 17 18 19 20 21
000
FTUS44 KJAN 020500
TAFMEI
TAF
KMEI 020538Z 0206/0306 19004KT P6SM SCT200
     FM021000 18004KT 4SM BR BKN007
     FM021400 20006KT P6SM SCT020
     FM022100 19006KT P6SM VCTS SCT040CB BKN250
     FM030000 20003KT P6SM SCT070 OVC250=

USA.gov is the U.S. government's official web portal to all federal, state and local government web resources and services.